sensor_id;sensor_type;location;lat;lon;timestamp;temperature;humidity
14101;DHT22;7127;49.372;8.166;2022-11-04T00:00:46;15.40;60.90
14101;DHT22;7127;49.372;8.166;2022-11-04T00:03:14;15.40;60.90
14101;DHT22;7127;49.372;8.166;2022-11-04T00:05:41;15.40;60.90
14101;DHT22;7127;49.372;8.166;2022-11-04T00:08:08;15.40;60.90
14101;DHT22;7127;49.372;8.166;2022-11-04T00:10:53;15.40;60.80
14101;DHT22;7127;49.372;8.166;2022-11-04T00:13:37;15.50;60.80
14101;DHT22;7127;49.372;8.166;2022-11-04T00:16:05;15.50;60.80
14101;DHT22;7127;49.372;8.166;2022-11-04T00:19:00;15.50;60.80
14101;DHT22;7127;49.372;8.166;2022-11-04T00:21:27;15.40;60.50
14101;DHT22;7127;49.372;8.166;2022-11-04T00:24:12;15.40;60.40
14101;DHT22;7127;49.372;8.166;2022-11-04T00:26:57;15.40;60.50
14101;DHT22;7127;49.372;8.166;2022-11-04T00:29:42;15.40;60.50
14101;DHT22;7127;49.372;8.166;2022-11-04T00:32:09;15.40;60.40
14101;DHT22;7127;49.372;8.166;2022-11-04T00:34:55;15.40;60.30
14101;DHT22;7127;49.372;8.166;2022-11-04T00:37:22;15.40;60.30
14101;DHT22;7127;49.372;8.166;2022-11-04T00:39:49;15.40;60.30
14101;DHT22;7127;49.372;8.166;2022-11-04T00:42:15;15.30;60.20
14101;DHT22;7127;49.372;8.166;2022-11-04T00:44:42;15.30;60.10
14101;DHT22;7127;49.372;8.166;2022-11-04T00:47:09;15.30;60.00
14101;DHT22;7127;49.372;8.166;2022-11-04T00:49:36;15.30;60.00
14101;DHT22;7127;49.372;8.166;2022-11-04T00:52:05;15.30;59.90
14101;DHT22;7127;49.372;8.166;2022-11-04T00:54:32;15.30;59.90
14101;DHT22;7127;49.372;8.166;2022-11-04T00:56:59;15.30;59.90
14101;DHT22;7127;49.372;8.166;2022-11-04T00:59:26;15.20;59.80
14101;DHT22;7127;49.372;8.166;2022-11-04T01:01:54;15.20;59.80
14101;DHT22;7127;49.372;8.166;2022-11-04T01:04:21;15.20;59.80
14101;DHT22;7127;49.372;8.166;2022-11-04T01:06:48;15.20;59.80
14101;DHT22;7127;49.372;8.166;2022-11-04T01:09:16;15.20;59.80
14101;DHT22;7127;49.372;8.166;2022-11-04T01:11:44;15.10;59.70
14101;DHT22;7127;49.372;8.166;2022-11-04T01:14:11;15.10;59.70
14101;DHT22;7127;49.372;8.166;2022-11-04T01:16:39;15.10;59.70
14101;DHT22;7127;49.372;8.166;2022-11-04T01:19:06;15.10;59.70
14101;DHT22;7127;49.372;8.166;2022-11-04T01:21:33;15.10;59.70
14101;DHT22;7127;49.372;8.166;2022-11-04T01:24:00;15.00;59.70
14101;DHT22;7127;49.372;8.166;2022-11-04T01:26:29;15.00;59.60
14101;DHT22;7127;49.372;8.166;2022-11-04T01:28:57;15.00;59.60
14101;DHT22;7127;49.372;8.166;2022-11-04T01:31:27;15.00;59.60
14101;DHT22;7127;49.372;8.166;2022-11-04T01:33:54;15.00;59.60
14101;DHT22;7127;49.372;8.166;2022-11-04T01:36:22;15.00;59.60
14101;DHT22;7127;49.372;8.166;2022-11-04T01:38:50;15.00;59.70
14101;DHT22;7127;49.372;8.166;2022-11-04T01:41:20;15.00;59.70
14101;DHT22;7127;49.372;8.166;2022-11-04T01:43:50;15.00;59.60
14101;DHT22;7127;49.372;8.166;2022-11-04T01:46:25;15.00;59.60
14101;DHT22;7127;49.372;8.166;2022-11-04T01:48:58;15.00;59.60
14101;DHT22;7127;49.372;8.166;2022-11-04T01:51:29;15.00;59.60
14101;DHT22;7127;49.372;8.166;2022-11-04T01:53:58;15.00;59.50
14101;DHT22;7127;49.372;8.166;2022-11-04T01:56:27;15.10;59.50
14101;DHT22;7127;49.372;8.166;2022-11-04T01:58:59;15.00;59.40
14101;DHT22;7127;49.372;8.166;2022-11-04T02:01:28;15.00;59.30
14101;DHT22;7127;49.372;8.166;2022-11-04T02:03:58;15.00;59.30
14101;DHT22;7127;49.372;8.166;2022-11-04T02:06:47;15.00;59.30
14101;DHT22;7127;49.372;8.166;2022-11-04T02:09:15;15.00;59.30
14101;DHT22;7127;49.372;8.166;2022-11-04T02:11:42;15.00;59.20
14101;DHT22;7127;49.372;8.166;2022-11-04T02:14:29;15.10;59.30
14101;DHT22;7127;49.372;8.166;2022-11-04T02:17:03;15.00;59.20
14101;DHT22;7127;49.372;8.166;2022-11-04T02:19:54;15.10;59.10
14101;DHT22;7127;49.372;8.166;2022-11-04T02:22:51;15.10;58.70
14101;DHT22;7127;49.372;8.166;2022-11-04T02:25:52;15.10;58.80
14101;DHT22;7127;49.372;8.166;2022-11-04T02:31:31;15.00;58.80
14101;DHT22;7127;49.372;8.166;2022-11-04T02:34:07;15.00;58.70
14101;DHT22;7127;49.372;8.166;2022-11-04T02:36:42;15.00;58.80
14101;DHT22;7127;49.372;8.166;2022-11-04T02:39:19;15.00;58.60
14101;DHT22;7127;49.372;8.166;2022-11-04T02:41:54;14.90;58.40
14101;DHT22;7127;49.372;8.166;2022-11-04T02:44:28;14.90;58.50
14101;DHT22;7127;49.372;8.166;2022-11-04T02:46:59;14.90;58.40
14101;DHT22;7127;49.372;8.166;2022-11-04T02:49:33;14.90;58.50
14101;DHT22;7127;49.372;8.166;2022-11-04T02:52:04;14.80;58.50
14101;DHT22;7127;49.372;8.166;2022-11-04T02:54:35;14.90;58.60
14101;DHT22;7127;49.372;8.166;2022-11-04T02:57:05;14.80;58.50
14101;DHT22;7127;49.372;8.166;2022-11-04T02:59:37;14.80;58.50
14101;DHT22;7127;49.372;8.166;2022-11-04T03:02:09;14.80;58.40
14101;DHT22;7127;49.372;8.166;2022-11-04T03:04:41;14.80;58.30
14101;DHT22;7127;49.372;8.166;2022-11-04T03:07:11;14.80;58.20
14101;DHT22;7127;49.372;8.166;2022-11-04T03:09:41;14.80;58.20
14101;DHT22;7127;49.372;8.166;2022-11-04T03:12:15;14.80;58.20
14101;DHT22;7127;49.372;8.166;2022-11-04T03:14:47;14.80;58.20
14101;DHT22;7127;49.372;8.166;2022-11-04T03:17:21;14.70;58.10
14101;DHT22;7127;49.372;8.166;2022-11-04T03:19:53;14.80;58.20
14101;DHT22;7127;49.372;8.166;2022-11-04T03:22:23;14.70;58.20
14101;DHT22;7127;49.372;8.166;2022-11-04T03:24:51;14.70;58.30
14101;DHT22;7127;49.372;8.166;2022-11-04T03:27:23;14.70;58.30
14101;DHT22;7127;49.372;8.166;2022-11-04T03:29:57;14.70;58.20
14101;DHT22;7127;49.372;8.166;2022-11-04T03:32:35;14.70;58.20
14101;DHT22;7127;49.372;8.166;2022-11-04T03:35:04;14.70;58.10
14101;DHT22;7127;49.372;8.166;2022-11-04T03:37:31;14.70;58.10
14101;DHT22;7127;49.372;8.166;2022-11-04T03:39:58;14.70;58.10
14101;DHT22;7127;49.372;8.166;2022-11-04T03:42:26;14.70;58.10
14101;DHT22;7127;49.372;8.166;2022-11-04T03:44:55;14.70;58.10
14101;DHT22;7127;49.372;8.166;2022-11-04T03:47:24;14.70;58.00
14101;DHT22;7127;49.372;8.166;2022-11-04T03:49:58;14.70;57.90
14101;DHT22;7127;49.372;8.166;2022-11-04T03:52:25;14.60;57.80
14101;DHT22;7127;49.372;8.166;2022-11-04T03:54:52;14.60;57.90
14101;DHT22;7127;49.372;8.166;2022-11-04T03:57:33;14.60;57.90
14101;DHT22;7127;49.372;8.166;2022-11-04T04:00:07;14.60;57.90
14101;DHT22;7127;49.372;8.166;2022-11-04T04:02:59;14.50;57.90
14101;DHT22;7127;49.372;8.166;2022-11-04T04:05:30;14.50;57.90
14101;DHT22;7127;49.372;8.166;2022-11-04T04:08:07;14.50;57.90
14101;DHT22;7127;49.372;8.166;2022-11-04T04:10:40;14.50;58.00
14101;DHT22;7127;49.372;8.166;2022-11-04T04:13:22;14.50;58.00
14101;DHT22;7127;49.372;8.166;2022-11-04T04:15:54;14.50;58.00
14101;DHT22;7127;49.372;8.166;2022-11-04T04:18:29;14.40;57.90
14101;DHT22;7127;49.372;8.166;2022-11-04T04:21:00;14.40;58.00
14101;DHT22;7127;49.372;8.166;2022-11-04T04:23:31;14.40;58.00
14101;DHT22;7127;49.372;8.166;2022-11-04T04:26:18;14.40;58.00
14101;DHT22;7127;49.372;8.166;2022-11-04T04:29:04;14.40;57.90
14101;DHT22;7127;49.372;8.166;2022-11-04T04:31:32;14.40;57.90
14101;DHT22;7127;49.372;8.166;2022-11-04T04:34:19;14.40;57.90
14101;DHT22;7127;49.372;8.166;2022-11-04T04:36:53;14.40;57.90
14101;DHT22;7127;49.372;8.166;2022-11-04T04:39:23;14.30;57.90
14101;DHT22;7127;49.372;8.166;2022-11-04T04:42:08;14.30;57.90
14101;DHT22;7127;49.372;8.166;2022-11-04T04:44:54;14.30;57.90
14101;DHT22;7127;49.372;8.166;2022-11-04T04:47:36;14.20;57.80
14101;DHT22;7127;49.372;8.166;2022-11-04T04:50:05;14.20;57.80
14101;DHT22;7127;49.372;8.166;2022-11-04T04:52:37;14.20;57.90
14101;DHT22;7127;49.372;8.166;2022-11-04T04:55:05;14.20;57.90
14101;DHT22;7127;49.372;8.166;2022-11-04T04:57:32;14.10;57.90
14101;DHT22;7127;49.372;8.166;2022-11-04T04:59:59;14.10;57.90
14101;DHT22;7127;49.372;8.166;2022-11-04T05:02:26;14.10;58.00
14101;DHT22;7127;49.372;8.166;2022-11-04T05:04:53;14.10;58.00
14101;DHT22;7127;49.372;8.166;2022-11-04T05:07:21;14.10;58.10
14101;DHT22;7127;49.372;8.166;2022-11-04T05:09:49;14.10;58.20
14101;DHT22;7127;49.372;8.166;2022-11-04T05:12:16;14.00;58.10
14101;DHT22;7127;49.372;8.166;2022-11-04T05:14:44;14.00;58.20
14101;DHT22;7127;49.372;8.166;2022-11-04T05:17:10;14.00;58.30
14101;DHT22;7127;49.372;8.166;2022-11-04T05:19:37;14.00;58.30
14101;DHT22;7127;49.372;8.166;2022-11-04T05:22:04;14.00;58.30
14101;DHT22;7127;49.372;8.166;2022-11-04T05:24:31;14.00;58.40
14101;DHT22;7127;49.372;8.166;2022-11-04T05:27:00;14.00;58.40
14101;DHT22;7127;49.372;8.166;2022-11-04T05:29:27;14.00;58.40
14101;DHT22;7127;49.372;8.166;2022-11-04T05:31:53;14.00;58.50
14101;DHT22;7127;49.372;8.166;2022-11-04T05:34:20;14.00;58.50
14101;DHT22;7127;49.372;8.166;2022-11-04T05:36:47;14.00;58.50
14101;DHT22;7127;49.372;8.166;2022-11-04T05:39:14;14.10;58.60
14101;DHT22;7127;49.372;8.166;2022-11-04T05:41:41;14.00;58.50
14101;DHT22;7127;49.372;8.166;2022-11-04T05:44:10;14.00;58.40
14101;DHT22;7127;49.372;8.166;2022-11-04T05:46:37;14.00;58.40
14101;DHT22;7127;49.372;8.166;2022-11-04T05:49:04;14.00;58.40
14101;DHT22;7127;49.372;8.166;2022-11-04T05:51:31;14.00;58.40
14101;DHT22;7127;49.372;8.166;2022-11-04T05:53:59;14.00;58.40
14101;DHT22;7127;49.372;8.166;2022-11-04T05:56:26;14.00;58.40
14101;DHT22;7127;49.372;8.166;2022-11-04T05:58:53;14.00;58.40
14101;DHT22;7127;49.372;8.166;2022-11-04T06:01:28;13.90;58.20
14101;DHT22;7127;49.372;8.166;2022-11-04T06:03:56;13.90;58.20
14101;DHT22;7127;49.372;8.166;2022-11-04T06:06:25;13.90;58.20
14101;DHT22;7127;49.372;8.166;2022-11-04T06:08:52;13.90;58.30
14101;DHT22;7127;49.372;8.166;2022-11-04T06:11:20;13.80;58.30
14101;DHT22;7127;49.372;8.166;2022-11-04T06:13:48;13.80;58.40
14101;DHT22;7127;49.372;8.166;2022-11-04T06:16:15;13.80;58.50
14101;DHT22;7127;49.372;8.166;2022-11-04T06:18:43;13.80;58.60
14101;DHT22;7127;49.372;8.166;2022-11-04T06:21:21;13.70;58.60
14101;DHT22;7127;49.372;8.166;2022-11-04T06:23:50;13.70;58.70
14101;DHT22;7127;49.372;8.166;2022-11-04T06:26:17;13.70;58.60
14101;DHT22;7127;49.372;8.166;2022-11-04T06:28:44;13.70;58.70
14101;DHT22;7127;49.372;8.166;2022-11-04T06:31:12;13.70;58.60
14101;DHT22;7127;49.372;8.166;2022-11-04T06:33:39;13.60;58.60
14101;DHT22;7127;49.372;8.166;2022-11-04T06:36:11;13.60;58.60
14101;DHT22;7127;49.372;8.166;2022-11-04T06:38:39;13.60;58.60
14101;DHT22;7127;49.372;8.166;2022-11-04T06:41:08;13.60;58.60
14101;DHT22;7127;49.372;8.166;2022-11-04T06:43:36;13.60;58.60
14101;DHT22;7127;49.372;8.166;2022-11-04T06:46:04;13.50;58.50
14101;DHT22;7127;49.372;8.166;2022-11-04T06:48:31;13.50;58.50
14101;DHT22;7127;49.372;8.166;2022-11-04T06:50:58;13.40;58.60
14101;DHT22;7127;49.372;8.166;2022-11-04T06:53:27;13.40;58.80
14101;DHT22;7127;49.372;8.166;2022-11-04T06:56:01;13.50;59.00
14101;DHT22;7127;49.372;8.166;2022-11-04T06:58:28;13.50;59.10
14101;DHT22;7127;49.372;8.166;2022-11-04T07:00:55;13.30;59.00
14101;DHT22;7127;49.372;8.166;2022-11-04T07:03:22;13.40;59.20
14101;DHT22;7127;49.372;8.166;2022-11-04T07:05:49;13.50;59.30
14101;DHT22;7127;49.372;8.166;2022-11-04T07:08:16;13.50;59.40
14101;DHT22;7127;49.372;8.166;2022-11-04T07:10:44;13.50;59.40
14101;DHT22;7127;49.372;8.166;2022-11-04T07:13:11;13.50;59.40
14101;DHT22;7127;49.372;8.166;2022-11-04T07:15:38;13.60;59.50
14101;DHT22;7127;49.372;8.166;2022-11-04T07:18:05;13.60;59.50
14101;DHT22;7127;49.372;8.166;2022-11-04T07:20:33;13.60;59.50
14101;DHT22;7127;49.372;8.166;2022-11-04T07:23:00;13.60;59.50
14101;DHT22;7127;49.372;8.166;2022-11-04T07:25:27;13.70;59.60
14101;DHT22;7127;49.372;8.166;2022-11-04T07:27:55;13.70;59.50
14101;DHT22;7127;49.372;8.166;2022-11-04T07:30:22;13.70;59.50
14101;DHT22;7127;49.372;8.166;2022-11-04T07:32:49;13.80;59.60
14101;DHT22;7127;49.372;8.166;2022-11-04T07:35:16;13.80;59.60
14101;DHT22;7127;49.372;8.166;2022-11-04T07:37:43;13.80;59.70
14101;DHT22;7127;49.372;8.166;2022-11-04T07:40:11;13.90;59.80
14101;DHT22;7127;49.372;8.166;2022-11-04T07:42:38;13.90;59.80
14101;DHT22;7127;49.372;8.166;2022-11-04T07:45:07;13.90;59.80
14101;DHT22;7127;49.372;8.166;2022-11-04T07:47:34;14.00;60.60
14101;DHT22;7127;49.372;8.166;2022-11-04T07:50:01;14.00;59.90
14101;DHT22;7127;49.372;8.166;2022-11-04T07:52:29;14.10;60.00
14101;DHT22;7127;49.372;8.166;2022-11-04T07:54:56;14.10;60.00
14101;DHT22;7127;49.372;8.166;2022-11-04T07:57:23;14.20;60.90
14101;DHT22;7127;49.372;8.166;2022-11-04T07:59:50;14.20;60.00
14101;DHT22;7127;49.372;8.166;2022-11-04T08:02:18;14.20;59.90
14101;DHT22;7127;49.372;8.166;2022-11-04T08:04:45;14.30;59.90
14101;DHT22;7127;49.372;8.166;2022-11-04T08:07:12;14.30;59.90
14101;DHT22;7127;49.372;8.166;2022-11-04T08:09:39;14.40;59.90
14101;DHT22;7127;49.372;8.166;2022-11-04T08:12:06;14.40;59.70
14101;DHT22;7127;49.372;8.166;2022-11-04T08:14:33;14.40;59.60
14101;DHT22;7127;49.372;8.166;2022-11-04T08:17:00;14.40;59.50
14101;DHT22;7127;49.372;8.166;2022-11-04T08:19:29;14.40;59.40
14101;DHT22;7127;49.372;8.166;2022-11-04T08:21:56;14.40;59.40
14101;DHT22;7127;49.372;8.166;2022-11-04T08:24:23;14.40;59.30
14101;DHT22;7127;49.372;8.166;2022-11-04T08:26:50;14.40;59.20
14101;DHT22;7127;49.372;8.166;2022-11-04T08:29:17;14.40;59.20
14101;DHT22;7127;49.372;8.166;2022-11-04T08:31:44;14.40;59.20
14101;DHT22;7127;49.372;8.166;2022-11-04T08:34:11;14.40;59.20
14101;DHT22;7127;49.372;8.166;2022-11-04T08:36:40;14.40;59.20
14101;DHT22;7127;49.372;8.166;2022-11-04T08:39:09;14.40;59.20
14101;DHT22;7127;49.372;8.166;2022-11-04T08:41:38;14.40;59.90
14101;DHT22;7127;49.372;8.166;2022-11-04T08:44:06;14.40;59.40
14101;DHT22;7127;49.372;8.166;2022-11-04T08:46:35;14.50;59.50
14101;DHT22;7127;49.372;8.166;2022-11-04T08:49:03;14.50;59.40
14101;DHT22;7127;49.372;8.166;2022-11-04T08:51:34;14.50;59.40
14101;DHT22;7127;49.372;8.166;2022-11-04T08:54:04;14.50;59.40
14101;DHT22;7127;49.372;8.166;2022-11-04T08:56:34;14.50;59.30
14101;DHT22;7127;49.372;8.166;2022-11-04T08:59:01;14.50;59.30
14101;DHT22;7127;49.372;8.166;2022-11-04T09:01:30;14.50;59.30
14101;DHT22;7127;49.372;8.166;2022-11-04T09:03:57;14.50;59.30
14101;DHT22;7127;49.372;8.166;2022-11-04T09:06:26;14.60;59.50
14101;DHT22;7127;49.372;8.166;2022-11-04T09:08:54;14.60;59.50
14101;DHT22;7127;49.372;8.166;2022-11-04T09:11:24;14.60;59.60
14101;DHT22;7127;49.372;8.166;2022-11-04T09:13:51;14.70;59.90
14101;DHT22;7127;49.372;8.166;2022-11-04T09:16:18;14.70;59.90
14101;DHT22;7127;49.372;8.166;2022-11-04T09:18:45;14.80;60.00
14101;DHT22;7127;49.372;8.166;2022-11-04T09:21:12;14.80;60.00
14101;DHT22;7127;49.372;8.166;2022-11-04T09:23:39;14.90;60.20
14101;DHT22;7127;49.372;8.166;2022-11-04T09:26:08;14.90;60.20
14101;DHT22;7127;49.372;8.166;2022-11-04T09:28:37;15.00;60.30
14101;DHT22;7127;49.372;8.166;2022-11-04T09:31:05;15.10;60.40
14101;DHT22;7127;49.372;8.166;2022-11-04T09:33:32;15.10;60.20
14101;DHT22;7127;49.372;8.166;2022-11-04T09:35:59;15.20;60.20
14101;DHT22;7127;49.372;8.166;2022-11-04T09:38:27;15.20;60.20
14101;DHT22;7127;49.372;8.166;2022-11-04T09:40:55;15.30;60.40
14101;DHT22;7127;49.372;8.166;2022-11-04T09:43:35;15.40;60.50
14101;DHT22;7127;49.372;8.166;2022-11-04T09:46:09;15.40;60.40
14101;DHT22;7127;49.372;8.166;2022-11-04T09:48:42;15.50;60.20
14101;DHT22;7127;49.372;8.166;2022-11-04T09:51:10;15.60;60.20
14101;DHT22;7127;49.372;8.166;2022-11-04T09:53:42;15.60;60.20
14101;DHT22;7127;49.372;8.166;2022-11-04T09:56:14;15.70;60.00
14101;DHT22;7127;49.372;8.166;2022-11-04T09:58:42;15.70;59.80
14101;DHT22;7127;49.372;8.166;2022-11-04T10:01:20;15.70;59.70
14101;DHT22;7127;49.372;8.166;2022-11-04T10:04:08;15.80;59.70
14101;DHT22;7127;49.372;8.166;2022-11-04T10:06:47;15.80;59.70
14101;DHT22;7127;49.372;8.166;2022-11-04T10:09:36;15.80;59.70
14101;DHT22;7127;49.372;8.166;2022-11-04T10:12:17;15.80;59.70
14101;DHT22;7127;49.372;8.166;2022-11-04T10:15:08;15.90;59.80
14101;DHT22;7127;49.372;8.166;2022-11-04T10:17:57;15.90;59.70
14101;DHT22;7127;49.372;8.166;2022-11-04T10:20:39;16.00;59.90
14101;DHT22;7127;49.372;8.166;2022-11-04T10:23:18;16.00;59.90
14101;DHT22;7127;49.372;8.166;2022-11-04T10:25:48;16.00;60.00
14101;DHT22;7127;49.372;8.166;2022-11-04T10:28:17;16.10;60.00
14101;DHT22;7127;49.372;8.166;2022-11-04T10:30:47;16.20;60.10
14101;DHT22;7127;49.372;8.166;2022-11-04T10:33:23;16.20;60.00
14101;DHT22;7127;49.372;8.166;2022-11-04T10:35:54;16.30;60.10
14101;DHT22;7127;49.372;8.166;2022-11-04T10:38:28;16.30;60.00
14101;DHT22;7127;49.372;8.166;2022-11-04T10:40:57;16.40;60.00
14101;DHT22;7127;49.372;8.166;2022-11-04T10:43:29;16.40;60.00
14101;DHT22;7127;49.372;8.166;2022-11-04T10:46:12;16.50;59.80
14101;DHT22;7127;49.372;8.166;2022-11-04T10:48:49;16.60;59.80
14101;DHT22;7127;49.372;8.166;2022-11-04T10:51:17;16.60;59.70
14101;DHT22;7127;49.372;8.166;2022-11-04T10:53:47;16.60;59.60
14101;DHT22;7127;49.372;8.166;2022-11-04T10:56:21;16.70;59.60
14101;DHT22;7127;49.372;8.166;2022-11-04T10:58:52;16.70;59.50
14101;DHT22;7127;49.372;8.166;2022-11-04T11:01:28;16.80;59.70
14101;DHT22;7127;49.372;8.166;2022-11-04T11:03:58;16.80;59.60
14101;DHT22;7127;49.372;8.166;2022-11-04T11:06:27;16.80;59.60
14101;DHT22;7127;49.372;8.166;2022-11-04T11:08:57;16.90;59.50
14101;DHT22;7127;49.372;8.166;2022-11-04T11:11:39;16.80;59.40
14101;DHT22;7127;49.372;8.166;2022-11-04T11:14:16;16.90;59.30
14101;DHT22;7127;49.372;8.166;2022-11-04T11:16:43;16.90;59.20
14101;DHT22;7127;49.372;8.166;2022-11-04T11:19:19;16.90;59.20
14101;DHT22;7127;49.372;8.166;2022-11-04T11:21:48;17.00;59.10
14101;DHT22;7127;49.372;8.166;2022-11-04T11:24:19;17.00;59.10
14101;DHT22;7127;49.372;8.166;2022-11-04T11:26:48;16.90;59.10
14101;DHT22;7127;49.372;8.166;2022-11-04T11:29:20;16.90;59.00
14101;DHT22;7127;49.372;8.166;2022-11-04T11:31:49;16.90;59.20
14101;DHT22;7127;49.372;8.166;2022-11-04T11:34:21;16.90;59.30
14101;DHT22;7127;49.372;8.166;2022-11-04T11:36:51;16.90;59.40
14101;DHT22;7127;49.372;8.166;2022-11-04T11:39:21;16.90;59.50
14101;DHT22;7127;49.372;8.166;2022-11-04T11:41:52;16.90;59.60
14101;DHT22;7127;49.372;8.166;2022-11-04T11:44:25;16.90;59.60
14101;DHT22;7127;49.372;8.166;2022-11-04T11:46:58;16.90;59.60
14101;DHT22;7127;49.372;8.166;2022-11-04T11:49:29;16.90;59.70
14101;DHT22;7127;49.372;8.166;2022-11-04T11:52:20;17.00;59.80
14101;DHT22;7127;49.372;8.166;2022-11-04T11:54:51;17.00;59.80
14101;DHT22;7127;49.372;8.166;2022-11-04T11:57:28;17.00;59.90
14101;DHT22;7127;49.372;8.166;2022-11-04T12:00:00;17.10;59.90
14101;DHT22;7127;49.372;8.166;2022-11-04T12:02:34;17.10;59.80
14101;DHT22;7127;49.372;8.166;2022-11-04T12:05:10;17.10;59.80
14101;DHT22;7127;49.372;8.166;2022-11-04T12:07:47;17.20;59.90
14101;DHT22;7127;49.372;8.166;2022-11-04T12:10:24;17.20;59.80
14101;DHT22;7127;49.372;8.166;2022-11-04T12:13:01;17.20;59.70
14101;DHT22;7127;49.372;8.166;2022-11-04T12:15:55;17.20;59.60
14101;DHT22;7127;49.372;8.166;2022-11-04T12:19:03;17.30;59.70
14101;DHT22;7127;49.372;8.166;2022-11-04T12:21:39;17.30;59.50
14101;DHT22;7127;49.372;8.166;2022-11-04T12:24:17;17.30;59.60
14101;DHT22;7127;49.372;8.166;2022-11-04T12:26:53;17.30;59.60
14101;DHT22;7127;49.372;8.166;2022-11-04T12:29:33;17.40;59.50
14101;DHT22;7127;49.372;8.166;2022-11-04T12:32:14;17.40;59.40
14101;DHT22;7127;49.372;8.166;2022-11-04T12:34:52;17.50;59.50
14101;DHT22;7127;49.372;8.166;2022-11-04T12:37:30;17.50;59.30
14101;DHT22;7127;49.372;8.166;2022-11-04T12:40:10;17.50;59.20
14101;DHT22;7127;49.372;8.166;2022-11-04T12:42:47;17.50;59.00
14101;DHT22;7127;49.372;8.166;2022-11-04T12:45:25;17.50;59.00
14101;DHT22;7127;49.372;8.166;2022-11-04T12:48:00;17.50;59.00
14101;DHT22;7127;49.372;8.166;2022-11-04T12:50:46;17.50;59.00
14101;DHT22;7127;49.372;8.166;2022-11-04T12:53:41;17.60;58.80
14101;DHT22;7127;49.372;8.166;2022-11-04T12:56:13;17.60;58.80
14101;DHT22;7127;49.372;8.166;2022-11-04T12:58:55;17.50;58.60
14101;DHT22;7127;49.372;8.166;2022-11-04T13:01:30;17.50;58.30
14101;DHT22;7127;49.372;8.166;2022-11-04T13:04:05;17.50;58.30
14101;DHT22;7127;49.372;8.166;2022-11-04T13:06:39;17.50;58.10
14101;DHT22;7127;49.372;8.166;2022-11-04T13:09:12;17.50;58.20
14101;DHT22;7127;49.372;8.166;2022-11-04T13:11:46;17.50;58.10
14101;DHT22;7127;49.372;8.166;2022-11-04T13:14:18;17.40;57.90
14101;DHT22;7127;49.372;8.166;2022-11-04T13:16:50;17.40;58.00
14101;DHT22;7127;49.372;8.166;2022-11-04T13:19:23;17.30;57.90
14101;DHT22;7127;49.372;8.166;2022-11-04T13:21:50;17.30;57.90
14101;DHT22;7127;49.372;8.166;2022-11-04T13:24:24;17.20;57.90
14101;DHT22;7127;49.372;8.166;2022-11-04T13:26:58;17.20;58.00
14101;DHT22;7127;49.372;8.166;2022-11-04T13:29:26;17.10;58.00
14101;DHT22;7127;49.372;8.166;2022-11-04T13:31:59;17.10;58.20
14101;DHT22;7127;49.372;8.166;2022-11-04T13:34:35;17.10;58.40
14101;DHT22;7127;49.372;8.166;2022-11-04T13:37:11;17.00;58.30
14101;DHT22;7127;49.372;8.166;2022-11-04T13:39:43;17.00;58.40
14101;DHT22;7127;49.372;8.166;2022-11-04T13:42:32;16.90;58.50
14101;DHT22;7127;49.372;8.166;2022-11-04T13:45:08;16.90;58.60
14101;DHT22;7127;49.372;8.166;2022-11-04T13:47:44;16.90;58.50
14101;DHT22;7127;49.372;8.166;2022-11-04T13:50:31;16.80;58.50
14101;DHT22;7127;49.372;8.166;2022-11-04T13:53:00;16.80;58.60
14101;DHT22;7127;49.372;8.166;2022-11-04T13:55:29;16.80;58.70
14101;DHT22;7127;49.372;8.166;2022-11-04T13:57:57;16.80;58.80
14101;DHT22;7127;49.372;8.166;2022-11-04T14:00:26;16.80;58.90
14101;DHT22;7127;49.372;8.166;2022-11-04T14:02:55;16.80;58.90
14101;DHT22;7127;49.372;8.166;2022-11-04T14:06:01;16.80;58.90
14101;DHT22;7127;49.372;8.166;2022-11-04T14:08:29;16.80;58.90
14101;DHT22;7127;49.372;8.166;2022-11-04T14:11:05;16.80;58.90
14101;DHT22;7127;49.372;8.166;2022-11-04T14:14:02;16.70;58.80
14101;DHT22;7127;49.372;8.166;2022-11-04T14:16:45;16.80;58.90
14101;DHT22;7127;49.372;8.166;2022-11-04T14:22:30;16.70;59.10
14101;DHT22;7127;49.372;8.166;2022-11-04T14:24:59;16.60;58.90
14101;DHT22;7127;49.372;8.166;2022-11-04T14:27:36;16.60;59.00
14101;DHT22;7127;49.372;8.166;2022-11-04T14:30:05;16.60;59.30
14101;DHT22;7127;49.372;8.166;2022-11-04T14:32:38;16.50;59.20
14101;DHT22;7127;49.372;8.166;2022-11-04T14:35:07;16.50;59.30
14101;DHT22;7127;49.372;8.166;2022-11-04T14:37:42;16.40;59.30
14101;DHT22;7127;49.372;8.166;2022-11-04T14:40:23;16.40;59.40
14101;DHT22;7127;49.372;8.166;2022-11-04T14:42:53;16.40;59.50
14101;DHT22;7127;49.372;8.166;2022-11-04T14:45:22;16.30;59.40
14101;DHT22;7127;49.372;8.166;2022-11-04T14:47:53;16.30;59.50
14101;DHT22;7127;49.372;8.166;2022-11-04T14:50:24;16.30;59.60
14101;DHT22;7127;49.372;8.166;2022-11-04T14:52:54;16.30;59.60
14101;DHT22;7127;49.372;8.166;2022-11-04T14:55:23;16.30;59.60
14101;DHT22;7127;49.372;8.166;2022-11-04T14:57:54;16.30;59.50
14101;DHT22;7127;49.372;8.166;2022-11-04T15:00:33;16.30;59.50
14101;DHT22;7127;49.372;8.166;2022-11-04T15:03:13;16.30;59.40
14101;DHT22;7127;49.372;8.166;2022-11-04T15:05:46;16.30;59.30
14101;DHT22;7127;49.372;8.166;2022-11-04T15:08:27;16.20;59.20
14101;DHT22;7127;49.372;8.166;2022-11-04T15:11:00;16.20;59.20
14101;DHT22;7127;49.372;8.166;2022-11-04T15:13:32;16.20;59.20
14101;DHT22;7127;49.372;8.166;2022-11-04T15:16:04;16.20;59.20
14101;DHT22;7127;49.372;8.166;2022-11-04T15:18:35;16.10;59.10
14101;DHT22;7127;49.372;8.166;2022-11-04T15:21:04;16.10;59.20
14101;DHT22;7127;49.372;8.166;2022-11-04T15:23:33;16.00;59.10
14101;DHT22;7127;49.372;8.166;2022-11-04T15:26:02;16.00;59.30
14101;DHT22;7127;49.372;8.166;2022-11-04T15:28:34;16.00;59.40
14101;DHT22;7127;49.372;8.166;2022-11-04T15:31:05;15.90;59.40
14101;DHT22;7127;49.372;8.166;2022-11-04T15:33:37;15.90;59.50
14101;DHT22;7127;49.372;8.166;2022-11-04T15:36:07;15.90;59.60
14101;DHT22;7127;49.372;8.166;2022-11-04T15:38:37;15.90;59.70
14101;DHT22;7127;49.372;8.166;2022-11-04T15:41:04;15.90;59.70
14101;DHT22;7127;49.372;8.166;2022-11-04T15:43:47;15.80;59.60
14101;DHT22;7127;49.372;8.166;2022-11-04T15:46:18;15.90;59.60
14101;DHT22;7127;49.372;8.166;2022-11-04T15:49:02;15.80;60.00
14101;DHT22;7127;49.372;8.166;2022-11-04T15:51:33;15.80;59.40
14101;DHT22;7127;49.372;8.166;2022-11-04T15:54:04;15.80;59.30
14101;DHT22;7127;49.372;8.166;2022-11-04T15:56:38;15.70;59.10
14101;DHT22;7127;49.372;8.166;2022-11-04T15:59:11;15.70;59.00
14101;DHT22;7127;49.372;8.166;2022-11-04T16:01:45;15.70;59.00
14101;DHT22;7127;49.372;8.166;2022-11-04T16:04:14;15.60;59.00
14101;DHT22;7127;49.372;8.166;2022-11-04T16:06:43;15.60;59.10
14101;DHT22;7127;49.372;8.166;2022-11-04T16:09:25;15.60;59.20
14101;DHT22;7127;49.372;8.166;2022-11-04T16:12:11;15.50;59.30
14101;DHT22;7127;49.372;8.166;2022-11-04T16:14:47;15.50;59.40
14101;DHT22;7127;49.372;8.166;2022-11-04T16:17:15;15.50;59.60
14101;DHT22;7127;49.372;8.166;2022-11-04T16:19:45;15.40;59.40
14101;DHT22;7127;49.372;8.166;2022-11-04T16:22:19;15.40;59.50